Terminal Aerodrome Forecast
Issued by NWS

Home | Current Version | Previous Version | Text Only | Print | Product List | Glossary On
Versions: 1 2 3 4 5 6 7 8 9 10 11 12 13
000
FTUS45 KVEF 152300
TAFDAG
TAF
KDAG 152320Z 1600/1624 11010KT P6SM FEW120
     FM160400 26008KT P6SM FEW120
     FM162000 12010KT P6SM FEW100=

USA.gov is the U.S. government's official web portal to all federal, state and local government web resources and services.